sensor_id;sensor_type;location;lat;lon;timestamp;pressure;altitude;pressure_sealevel;temperature;humidity
49216;BME280;45943;53.148;8.204;2023-04-25T00:00:00;100735.78;;;13.48;100.00
49216;BME280;45943;53.148;8.204;2023-04-25T00:02:26;100744.00;;;13.47;100.00
49216;BME280;45943;53.148;8.204;2023-04-25T00:04:52;100742.00;;;13.49;100.00
49216;BME280;45943;53.148;8.204;2023-04-25T00:07:17;100752.94;;;13.47;100.00
49216;BME280;45943;53.148;8.204;2023-04-25T00:09:44;100744.72;;;13.49;100.00
49216;BME280;45943;53.148;8.204;2023-04-25T00:12:10;100762.44;;;13.52;100.00
49216;BME280;45943;53.148;8.204;2023-04-25T00:14:36;100758.59;;;13.54;100.00
49216;BME280;45943;53.148;8.204;2023-04-25T00:17:02;100761.13;;;13.46;100.00
49216;BME280;45943;53.148;8.204;2023-04-25T00:19:28;100766.44;;;13.38;100.00
49216;BME280;45943;53.148;8.204;2023-04-25T00:21:54;100769.13;;;13.38;100.00
49216;BME280;45943;53.148;8.204;2023-04-25T00:24:21;100762.59;;;13.31;100.00
49216;BME280;45943;53.148;8.204;2023-04-25T00:26:47;100758.19;;;13.39;100.00
49216;BME280;45943;53.148;8.204;2023-04-25T00:29:13;100763.28;;;13.42;100.00
49216;BME280;45943;53.148;8.204;2023-04-25T00:31:39;100763.44;;;13.41;100.00
49216;BME280;45943;53.148;8.204;2023-04-25T00:34:06;100760.88;;;13.39;100.00
49216;BME280;45943;53.148;8.204;2023-04-25T00:36:32;100768.13;;;13.39;100.00
49216;BME280;45943;53.148;8.204;2023-04-25T00:38:58;100765.28;;;13.40;100.00
49216;BME280;45943;53.148;8.204;2023-04-25T00:41:27;100771.81;;;13.38;100.00
49216;BME280;45943;53.148;8.204;2023-04-25T00:43:55;100760.19;;;13.37;100.00
49216;BME280;45943;53.148;8.204;2023-04-25T00:46:22;100770.22;;;13.35;100.00
49216;BME280;45943;53.148;8.204;2023-04-25T00:48:48;100770.66;;;13.40;100.00
49216;BME280;45943;53.148;8.204;2023-04-25T00:51:16;100766.84;;;13.43;100.00
49216;BME280;45943;53.148;8.204;2023-04-25T00:53:44;100775.34;;;13.38;100.00
49216;BME280;45943;53.148;8.204;2023-04-25T00:56:11;100774.22;;;13.41;100.00
49216;BME280;45943;53.148;8.204;2023-04-25T00:58:37;100766.41;;;13.47;100.00
49216;BME280;45943;53.148;8.204;2023-04-25T01:01:03;100767.25;;;13.48;100.00
49216;BME280;45943;53.148;8.204;2023-04-25T01:03:31;100767.97;;;13.40;100.00
49216;BME280;45943;53.148;8.204;2023-04-25T01:05:58;100772.38;;;13.41;100.00
49216;BME280;45943;53.148;8.204;2023-04-25T01:08:24;100772.38;;;13.41;100.00
49216;BME280;45943;53.148;8.204;2023-04-25T01:10:51;100780.44;;;13.41;100.00
49216;BME280;45943;53.148;8.204;2023-04-25T01:13:17;100772.66;;;13.38;100.00
49216;BME280;45943;53.148;8.204;2023-04-25T01:15:43;100778.31;;;13.45;100.00
49216;BME280;45943;53.148;8.204;2023-04-25T01:18:09;100783.56;;;13.46;100.00
49216;BME280;45943;53.148;8.204;2023-04-25T01:20:35;100797.59;;;13.50;100.00
49216;BME280;45943;53.148;8.204;2023-04-25T01:23:02;100787.69;;;13.51;100.00
49216;BME280;45943;53.148;8.204;2023-04-25T01:25:30;100792.78;;;13.54;100.00
49216;BME280;45943;53.148;8.204;2023-04-25T01:27:57;100802.00;;;13.51;100.00
49216;BME280;45943;53.148;8.204;2023-04-25T01:30:25;100797.47;;;13.52;100.00
49216;BME280;45943;53.148;8.204;2023-04-25T01:32:54;100797.03;;;13.46;100.00
49216;BME280;45943;53.148;8.204;2023-04-25T01:35:21;100792.94;;;13.42;100.00
49216;BME280;45943;53.148;8.204;2023-04-25T01:37:49;100797.63;;;13.40;100.00
49216;BME280;45943;53.148;8.204;2023-04-25T01:40:16;100802.31;;;13.38;100.00
49216;BME280;45943;53.148;8.204;2023-04-25T01:42:44;100803.00;;;13.40;100.00
49216;BME280;45943;53.148;8.204;2023-04-25T01:45:10;100803.31;;;13.37;100.00
49216;BME280;45943;53.148;8.204;2023-04-25T01:47:38;100808.81;;;13.36;100.00
49216;BME280;45943;53.148;8.204;2023-04-25T01:50:06;100803.56;;;13.34;100.00
49216;BME280;45943;53.148;8.204;2023-04-25T01:52:33;100807.53;;;13.30;100.00
49216;BME280;45943;53.148;8.204;2023-04-25T01:55:00;100812.94;;;13.30;100.00
49216;BME280;45943;53.148;8.204;2023-04-25T01:57:27;100813.94;;;13.19;100.00
49216;BME280;45943;53.148;8.204;2023-04-25T01:59:55;100812.09;;;13.20;100.00
49216;BME280;45943;53.148;8.204;2023-04-25T02:02:25;100812.50;;;13.25;100.00
49216;BME280;45943;53.148;8.204;2023-04-25T02:04:51;100816.31;;;13.32;100.00
49216;BME280;45943;53.148;8.204;2023-04-25T02:07:17;100819.72;;;13.34;100.00
49216;BME280;45943;53.148;8.204;2023-04-25T02:09:43;100822.16;;;13.28;100.00
49216;BME280;45943;53.148;8.204;2023-04-25T02:12:10;100824.81;;;13.18;100.00
49216;BME280;45943;53.148;8.204;2023-04-25T02:14:36;100826.66;;;13.17;100.00
49216;BME280;45943;53.148;8.204;2023-04-25T02:17:02;100820.16;;;13.20;100.00
49216;BME280;45943;53.148;8.204;2023-04-25T02:19:29;100817.19;;;13.23;100.00
49216;BME280;45943;53.148;8.204;2023-04-25T02:21:55;100816.03;;;13.26;100.00
49216;BME280;45943;53.148;8.204;2023-04-25T02:24:22;100814.06;;;13.28;100.00
49216;BME280;45943;53.148;8.204;2023-04-25T02:26:48;100818.59;;;13.27;100.00
49216;BME280;45943;53.148;8.204;2023-04-25T02:29:15;100821.16;;;13.19;100.00
49216;BME280;45943;53.148;8.204;2023-04-25T02:31:42;100822.66;;;13.12;100.00
49216;BME280;45943;53.148;8.204;2023-04-25T02:34:07;100833.00;;;13.16;100.00
49216;BME280;45943;53.148;8.204;2023-04-25T02:36:33;100826.22;;;13.12;100.00
49216;BME280;45943;53.148;8.204;2023-04-25T02:39:01;100828.19;;;13.10;100.00
49216;BME280;45943;53.148;8.204;2023-04-25T02:41:28;100826.22;;;13.12;100.00
49216;BME280;45943;53.148;8.204;2023-04-25T02:43:54;100830.75;;;13.12;100.00
49216;BME280;45943;53.148;8.204;2023-04-25T02:46:20;100835.28;;;13.11;99.99
49216;BME280;45943;53.148;8.204;2023-04-25T02:48:46;100834.16;;;13.14;98.68
49216;BME280;45943;53.148;8.204;2023-04-25T02:51:12;100827.50;;;13.18;99.17
49216;BME280;45943;53.148;8.204;2023-04-25T02:53:39;100826.41;;;13.20;98.53
49216;BME280;45943;53.148;8.204;2023-04-25T02:56:05;100823.09;;;13.17;96.86
49216;BME280;45943;53.148;8.204;2023-04-25T02:58:31;100828.75;;;13.14;95.49
49216;BME280;45943;53.148;8.204;2023-04-25T03:00:57;100821.53;;;13.14;99.46
49216;BME280;45943;53.148;8.204;2023-04-25T03:03:23;100820.69;;;13.14;96.54
49216;BME280;45943;53.148;8.204;2023-04-25T03:05:49;100819.81;;;13.13;97.05
49216;BME280;45943;53.148;8.204;2023-04-25T03:08:16;100824.66;;;13.10;94.89
49216;BME280;45943;53.148;8.204;2023-04-25T03:10:43;100819.81;;;13.04;93.87
49216;BME280;45943;53.148;8.204;2023-04-25T03:13:10;100815.88;;;13.08;97.05
49216;BME280;45943;53.148;8.204;2023-04-25T03:15:36;100815.88;;;13.08;96.25
49216;BME280;45943;53.148;8.204;2023-04-25T03:18:02;100824.81;;;13.08;95.37
49216;BME280;45943;53.148;8.204;2023-04-25T03:20:28;100820.38;;;13.07;94.36
49216;BME280;45943;53.148;8.204;2023-04-25T03:22:54;100824.91;;;13.07;97.33
49216;BME280;45943;53.148;8.204;2023-04-25T03:25:20;100831.88;;;13.00;89.22
49216;BME280;45943;53.148;8.204;2023-04-25T03:27:46;100831.03;;;12.99;89.71
49216;BME280;45943;53.148;8.204;2023-04-25T03:30:12;100833.81;;;12.98;91.39
49216;BME280;45943;53.148;8.204;2023-04-25T03:32:38;100833.13;;;12.96;89.69
49216;BME280;45943;53.148;8.204;2023-04-25T03:35:04;100840.34;;;12.95;86.89
49216;BME280;45943;53.148;8.204;2023-04-25T03:37:31;100838.50;;;12.86;84.29
49216;BME280;45943;53.148;8.204;2023-04-25T03:39:57;100832.69;;;12.81;84.90
49216;BME280;45943;53.148;8.204;2023-04-25T03:42:23;100838.59;;;12.75;83.10
49216;BME280;45943;53.148;8.204;2023-04-25T03:44:49;100833.09;;;12.76;84.61
49216;BME280;45943;53.148;8.204;2023-04-25T03:47:17;100843.31;;;12.82;86.15
49216;BME280;45943;53.148;8.204;2023-04-25T03:49:43;100843.69;;;12.78;84.08
49216;BME280;45943;53.148;8.204;2023-04-25T03:52:10;100848.25;;;12.77;83.90
49216;BME280;45943;53.148;8.204;2023-04-25T03:54:36;100851.78;;;12.78;84.06
49216;BME280;45943;53.148;8.204;2023-04-25T03:57:02;100854.47;;;12.78;84.58
49216;BME280;45943;53.148;8.204;2023-04-25T03:59:28;100857.44;;;12.75;85.00
49216;BME280;45943;53.148;8.204;2023-04-25T04:01:54;100858.28;;;12.75;81.99
49216;BME280;45943;53.148;8.204;2023-04-25T04:04:20;100867.66;;;12.71;80.76
49216;BME280;45943;53.148;8.204;2023-04-25T04:06:46;100879.09;;;12.63;78.45
49216;BME280;45943;53.148;8.204;2023-04-25T04:09:12;100874.84;;;12.61;77.06
49216;BME280;45943;53.148;8.204;2023-04-25T04:11:38;100880.06;;;12.62;76.97
49216;BME280;45943;53.148;8.204;2023-04-25T04:14:05;100882.63;;;12.64;76.96
49216;BME280;45943;53.148;8.204;2023-04-25T04:16:32;100888.00;;;12.64;75.86
49216;BME280;45943;53.148;8.204;2023-04-25T04:18:58;100887.44;;;12.60;75.95
49216;BME280;45943;53.148;8.204;2023-04-25T04:21:24;100892.13;;;12.68;75.72
49216;BME280;45943;53.148;8.204;2023-04-25T04:23:50;100893.84;;;12.69;76.14
49216;BME280;45943;53.148;8.204;2023-04-25T04:26:16;100891.03;;;12.71;75.18
49216;BME280;45943;53.148;8.204;2023-04-25T04:28:45;100893.25;;;12.66;74.13
49216;BME280;45943;53.148;8.204;2023-04-25T04:31:11;100901.03;;;12.59;72.60
49216;BME280;45943;53.148;8.204;2023-04-25T04:33:37;100905.09;;;12.53;74.96
49216;BME280;45943;53.148;8.204;2023-04-25T04:36:03;100906.41;;;12.59;76.92
49216;BME280;45943;53.148;8.204;2023-04-25T04:38:29;100903.13;;;12.55;75.28
49216;BME280;45943;53.148;8.204;2023-04-25T04:40:56;100905.94;;;12.54;75.17
49216;BME280;45943;53.148;8.204;2023-04-25T04:43:22;100911.34;;;12.54;75.89
49216;BME280;45943;53.148;8.204;2023-04-25T04:45:48;100915.59;;;12.56;76.54
49216;BME280;45943;53.148;8.204;2023-04-25T04:48:16;100920.59;;;12.61;75.64
49216;BME280;45943;53.148;8.204;2023-04-25T04:50:45;100920.13;;;12.56;74.77
49216;BME280;45943;53.148;8.204;2023-04-25T04:53:11;100920.25;;;12.54;75.59
49216;BME280;45943;53.148;8.204;2023-04-25T04:55:38;100923.28;;;12.61;75.75
49216;BME280;45943;53.148;8.204;2023-04-25T04:58:07;100928.91;;;12.58;75.91
49216;BME280;45943;53.148;8.204;2023-04-25T05:00:33;100924.38;;;12.58;77.23
49216;BME280;45943;53.148;8.204;2023-04-25T05:02:59;100919.88;;;12.59;77.56
49216;BME280;45943;53.148;8.204;2023-04-25T05:05:26;100933.19;;;12.60;78.20
49216;BME280;45943;53.148;8.204;2023-04-25T05:07:52;100933.19;;;12.60;76.95
49216;BME280;45943;53.148;8.204;2023-04-25T05:10:18;100931.88;;;12.55;77.64
49216;BME280;45943;53.148;8.204;2023-04-25T05:12:45;100933.38;;;12.48;76.55
49216;BME280;45943;53.148;8.204;2023-04-25T05:15:12;100939.03;;;12.45;78.51
49216;BME280;45943;53.148;8.204;2023-04-25T05:17:39;100942.31;;;12.48;78.94
49216;BME280;45943;53.148;8.204;2023-04-25T05:20:06;100940.78;;;12.55;80.20
49216;BME280;45943;53.148;8.204;2023-04-25T05:22:34;100945.91;;;12.58;80.88
49216;BME280;45943;53.148;8.204;2023-04-25T05:25:01;100954.84;;;12.59;82.70
49216;BME280;45943;53.148;8.204;2023-04-25T05:27:27;100946.88;;;12.57;80.82
49216;BME280;45943;53.148;8.204;2023-04-25T05:29:53;100951.97;;;12.51;81.42
49216;BME280;45943;53.148;8.204;2023-04-25T05:32:19;100951.25;;;12.49;80.48
49216;BME280;45943;53.148;8.204;2023-04-25T05:34:45;100952.69;;;12.53;83.60
49216;BME280;45943;53.148;8.204;2023-04-25T05:37:11;100958.06;;;12.53;81.21
49216;BME280;45943;53.148;8.204;2023-04-25T05:39:37;100973.22;;;12.54;81.66
49216;BME280;45943;53.148;8.204;2023-04-25T05:42:03;100965.63;;;12.59;80.39
49216;BME280;45943;53.148;8.204;2023-04-25T05:44:29;100966.19;;;12.62;78.77
49216;BME280;45943;53.148;8.204;2023-04-25T05:46:56;100967.66;;;12.76;77.50
49216;BME280;45943;53.148;8.204;2023-04-25T05:49:22;100965.81;;;12.77;78.61
49216;BME280;45943;53.148;8.204;2023-04-25T05:51:48;100973.91;;;12.77;78.39
49216;BME280;45943;53.148;8.204;2023-04-25T05:54:14;100965.00;;;12.86;75.94
49216;BME280;45943;53.148;8.204;2023-04-25T05:56:40;100968.31;;;12.89;76.04
49216;BME280;45943;53.148;8.204;2023-04-25T05:59:06;100973.50;;;12.81;72.83
49216;BME280;45943;53.148;8.204;2023-04-25T06:01:32;100977.72;;;12.74;72.50
49216;BME280;45943;53.148;8.204;2023-04-25T06:03:58;100985.50;;;12.77;71.99
49216;BME280;45943;53.148;8.204;2023-04-25T06:06:24;100981.31;;;12.84;72.59
49216;BME280;45943;53.148;8.204;2023-04-25T06:08:50;100999.63;;;12.90;72.11
49216;BME280;45943;53.148;8.204;2023-04-25T06:11:16;100990.41;;;12.93;71.31
49216;BME280;45943;53.148;8.204;2023-04-25T06:13:42;101001.06;;;12.95;71.71
49216;BME280;45943;53.148;8.204;2023-04-25T06:16:08;100997.94;;;12.89;71.30
49216;BME280;45943;53.148;8.204;2023-04-25T06:18:34;101000.63;;;12.89;72.32
49216;BME280;45943;53.148;8.204;2023-04-25T06:21:00;100997.38;;;12.96;75.93
49216;BME280;45943;53.148;8.204;2023-04-25T06:23:26;100998.97;;;12.98;74.54
49216;BME280;45943;53.148;8.204;2023-04-25T06:25:52;100999.44;;;13.13;74.58
49216;BME280;45943;53.148;8.204;2023-04-25T06:28:18;101001.91;;;13.26;74.07
49216;BME280;45943;53.148;8.204;2023-04-25T06:30:44;101005.59;;;13.25;74.50
49216;BME280;45943;53.148;8.204;2023-04-25T06:33:10;101004.44;;;13.17;71.82
49216;BME280;45943;53.148;8.204;2023-04-25T06:35:36;101000.28;;;13.13;70.86
49216;BME280;45943;53.148;8.204;2023-04-25T06:38:02;100997.03;;;13.10;71.28
49216;BME280;45943;53.148;8.204;2023-04-25T06:40:28;100997.31;;;13.16;71.41
49216;BME280;45943;53.148;8.204;2023-04-25T06:42:55;100993.91;;;13.14;72.63
49216;BME280;45943;53.148;8.204;2023-04-25T06:45:21;101000.81;;;13.07;74.08
49216;BME280;45943;53.148;8.204;2023-04-25T06:47:47;101008.09;;;13.16;73.57
49216;BME280;45943;53.148;8.204;2023-04-25T06:50:13;101000.75;;;13.18;72.52
49216;BME280;45943;53.148;8.204;2023-04-25T06:52:38;100995.44;;;13.07;72.64
49216;BME280;45943;53.148;8.204;2023-04-25T06:55:05;101005.16;;;13.19;72.86
49216;BME280;45943;53.148;8.204;2023-04-25T06:57:31;101010.22;;;13.13;70.31
49216;BME280;45943;53.148;8.204;2023-04-25T06:59:57;101013.75;;;13.13;71.95
49216;BME280;45943;53.148;8.204;2023-04-25T07:02:23;101000.00;;;13.16;70.78
49216;BME280;45943;53.148;8.204;2023-04-25T07:04:49;100998.16;;;13.17;70.74
49216;BME280;45943;53.148;8.204;2023-04-25T07:07:15;101007.16;;;13.27;69.78
49216;BME280;45943;53.148;8.204;2023-04-25T07:09:42;101011.00;;;13.34;71.10
49216;BME280;45943;53.148;8.204;2023-04-25T07:12:08;101019.97;;;13.44;70.73
49216;BME280;45943;53.148;8.204;2023-04-25T07:14:34;101019.16;;;13.54;69.64
49216;BME280;45943;53.148;8.204;2023-04-25T07:17:00;101027.25;;;13.54;68.56
49216;BME280;45943;53.148;8.204;2023-04-25T07:19:26;101021.16;;;13.61;68.39
49216;BME280;45943;53.148;8.204;2023-04-25T07:21:55;101025.28;;;13.65;68.35
49216;BME280;45943;53.148;8.204;2023-04-25T07:24:21;101028.72;;;13.67;67.72
49216;BME280;45943;53.148;8.204;2023-04-25T07:26:47;101021.59;;;13.66;65.50
49216;BME280;45943;53.148;8.204;2023-04-25T07:29:13;101025.56;;;13.62;63.78
49216;BME280;45943;53.148;8.204;2023-04-25T07:31:39;101036.03;;;13.56;62.58
49216;BME280;45943;53.148;8.204;2023-04-25T07:34:05;101031.03;;;13.41;61.06
49216;BME280;45943;53.148;8.204;2023-04-25T07:36:31;101034.13;;;13.37;60.96
49216;BME280;45943;53.148;8.204;2023-04-25T07:38:57;101043.19;;;13.36;61.19
49216;BME280;45943;53.148;8.204;2023-04-25T07:41:23;101046.16;;;13.23;61.02
49216;BME280;45943;53.148;8.204;2023-04-25T07:43:49;101052.09;;;13.27;62.09
49216;BME280;45943;53.148;8.204;2023-04-25T07:46:15;101057.63;;;13.25;64.23
49216;BME280;45943;53.148;8.204;2023-04-25T07:48:41;101056.06;;;13.23;65.30
49216;BME280;45943;53.148;8.204;2023-04-25T07:51:07;101079.78;;;13.29;66.48
49216;BME280;45943;53.148;8.204;2023-04-25T07:53:33;101086.34;;;13.15;69.10
49216;BME280;45943;53.148;8.204;2023-04-25T07:56:00;101092.47;;;12.96;69.63
49216;BME280;45943;53.148;8.204;2023-04-25T07:58:26;101085.78;;;12.90;71.01
49216;BME280;45943;53.148;8.204;2023-04-25T08:00:52;101089.78;;;12.96;74.31
49216;BME280;45943;53.148;8.204;2023-04-25T08:03:18;101098.31;;;13.01;73.24
49216;BME280;45943;53.148;8.204;2023-04-25T08:05:44;101093.38;;;13.06;73.57
49216;BME280;45943;53.148;8.204;2023-04-25T08:08:11;101094.16;;;13.18;71.70
49216;BME280;45943;53.148;8.204;2023-04-25T08:10:37;101103.47;;;13.35;71.00
49216;BME280;45943;53.148;8.204;2023-04-25T08:13:03;101099.53;;;13.39;68.21
49216;BME280;45943;53.148;8.204;2023-04-25T08:15:29;101099.78;;;13.36;67.20
49216;BME280;45943;53.148;8.204;2023-04-25T08:17:55;101109.53;;;13.27;65.86
49216;BME280;45943;53.148;8.204;2023-04-25T08:20:21;101103.47;;;13.35;66.35
49216;BME280;45943;53.148;8.204;2023-04-25T08:22:47;101105.22;;;13.45;66.48
49216;BME280;45943;53.148;8.204;2023-04-25T08:25:14;101108.38;;;13.51;64.04
49216;BME280;45943;53.148;8.204;2023-04-25T08:27:40;101109.91;;;13.43;63.04
49216;BME280;45943;53.148;8.204;2023-04-25T08:30:06;101105.81;;;13.49;61.14
49216;BME280;45943;53.148;8.204;2023-04-25T08:32:34;101108.72;;;13.67;61.91
49216;BME280;45943;53.148;8.204;2023-04-25T08:35:00;101119.78;;;13.73;61.89
49216;BME280;45943;53.148;8.204;2023-04-25T08:37:26;101127.72;;;13.65;62.47
49216;BME280;45943;53.148;8.204;2023-04-25T08:39:52;101143.53;;;13.49;63.69
49216;BME280;45943;53.148;8.204;2023-04-25T08:42:18;101148.50;;;13.23;68.19
49216;BME280;45943;53.148;8.204;2023-04-25T08:44:46;101172.72;;;12.81;70.76
49216;BME280;45943;53.148;8.204;2023-04-25T08:47:14;101148.56;;;12.70;77.98
49216;BME280;45943;53.148;8.204;2023-04-25T08:49:41;101144.00;;;12.50;78.22
49216;BME280;45943;53.148;8.204;2023-04-25T08:52:10;101155.22;;;12.55;79.42
49216;BME280;45943;53.148;8.204;2023-04-25T08:54:41;101162.16;;;12.69;82.72
49216;BME280;45943;53.148;8.204;2023-04-25T08:57:09;101159.53;;;12.78;83.04
49216;BME280;45943;53.148;8.204;2023-04-25T08:59:36;101167.53;;;12.89;87.38
49216;BME280;45943;53.148;8.204;2023-04-25T09:02:05;101160.97;;;13.03;87.90
49216;BME280;45943;53.148;8.204;2023-04-25T09:04:31;101156.72;;;13.22;94.97
49216;BME280;45943;53.148;8.204;2023-04-25T09:06:58;101161.31;;;13.31;88.53
49216;BME280;45943;53.148;8.204;2023-04-25T09:09:24;101168.31;;;13.43;95.45
49216;BME280;45943;53.148;8.204;2023-04-25T09:11:50;101173.19;;;13.49;93.42
49216;BME280;45943;53.148;8.204;2023-04-25T09:14:20;101176.38;;;13.64;89.49
49216;BME280;45943;53.148;8.204;2023-04-25T09:16:57;101169.59;;;13.69;84.29
49216;BME280;45943;53.148;8.204;2023-04-25T09:19:26;101173.72;;;13.73;83.86
49216;BME280;45943;53.148;8.204;2023-04-25T09:21:54;101175.91;;;13.89;83.04
49216;BME280;45943;53.148;8.204;2023-04-25T09:24:30;101174.91;;;13.90;73.66
49216;BME280;45943;53.148;8.204;2023-04-25T09:26:57;101174.66;;;14.03;69.40
49216;BME280;45943;53.148;8.204;2023-04-25T09:29:33;101180.22;;;14.11;71.28
49216;BME280;45943;53.148;8.204;2023-04-25T09:32:10;101179.09;;;14.14;70.41
49216;BME280;45943;53.148;8.204;2023-04-25T09:34:42;101198.16;;;13.82;68.77
49216;BME280;45943;53.148;8.204;2023-04-25T09:37:10;101230.22;;;13.54;76.34
49216;BME280;45943;53.148;8.204;2023-04-25T09:39:36;101244.72;;;13.32;81.75
49216;BME280;45943;53.148;8.204;2023-04-25T09:42:04;101249.59;;;12.74;87.32
49216;BME280;45943;53.148;8.204;2023-04-25T09:44:30;101234.25;;;12.54;88.35
49216;BME280;45943;53.148;8.204;2023-04-25T09:46:57;101247.28;;;12.58;90.82
49216;BME280;45943;53.148;8.204;2023-04-25T09:49:23;101242.75;;;12.70;89.67
49216;BME280;45943;53.148;8.204;2023-04-25T09:51:56;101236.47;;;12.81;90.16
49216;BME280;45943;53.148;8.204;2023-04-25T09:54:26;101243.44;;;12.83;88.10
49216;BME280;45943;53.148;8.204;2023-04-25T09:56:52;101244.78;;;12.89;89.82
49216;BME280;45943;53.148;8.204;2023-04-25T09:59:22;101239.16;;;13.13;90.16
49216;BME280;45943;53.148;8.204;2023-04-25T10:01:48;101239.59;;;13.29;86.45
49216;BME280;45943;53.148;8.204;2023-04-25T10:04:19;101236.59;;;13.53;87.08
49216;BME280;45943;53.148;8.204;2023-04-25T10:06:48;101237.31;;;13.55;80.96
49216;BME280;45943;53.148;8.204;2023-04-25T10:09:16;101239.81;;;13.68;81.76
49216;BME280;45943;53.148;8.204;2023-04-25T10:11:44;101237.28;;;13.76;78.93
49216;BME280;45943;53.148;8.204;2023-04-25T10:14:12;101233.34;;;13.80;75.72
49216;BME280;45943;53.148;8.204;2023-04-25T10:16:40;101232.53;;;13.89;74.00
49216;BME280;45943;53.148;8.204;2023-04-25T10:19:07;101232.47;;;14.10;70.53
49216;BME280;45943;53.148;8.204;2023-04-25T10:21:33;101240.63;;;14.29;66.31
49216;BME280;45943;53.148;8.204;2023-04-25T10:24:00;101234.72;;;14.45;63.96
49216;BME280;45943;53.148;8.204;2023-04-25T10:26:27;101234.66;;;14.66;62.53
49216;BME280;45943;53.148;8.204;2023-04-25T10:31:26;101228.66;;;14.82;58.95
49216;BME280;45943;53.148;8.204;2023-04-25T10:33:54;101221.84;;;14.97;58.00
49216;BME280;45943;53.148;8.204;2023-04-25T10:36:21;101232.22;;;15.11;57.93
49216;BME280;45943;53.148;8.204;2023-04-25T10:38:49;101229.09;;;15.16;57.70
49216;BME280;45943;53.148;8.204;2023-04-25T10:41:20;101234.22;;;15.00;57.35
49216;BME280;45943;53.148;8.204;2023-04-25T10:43:47;101236.63;;;14.93;60.69
49216;BME280;45943;53.148;8.204;2023-04-25T10:46:29;101250.84;;;14.76;62.28
49216;BME280;45943;53.148;8.204;2023-04-25T10:48:57;101248.25;;;14.55;64.07
49216;BME280;45943;53.148;8.204;2023-04-25T10:54:03;101232.66;;;15.07;65.57
49216;BME280;45943;53.148;8.204;2023-04-25T10:56:37;101239.31;;;15.32;64.29
49216;BME280;45943;53.148;8.204;2023-04-25T10:59:08;101229.56;;;15.77;61.31
49216;BME280;45943;53.148;8.204;2023-04-25T11:01:40;101230.72;;;16.02;57.23
49216;BME280;45943;53.148;8.204;2023-04-25T11:07:05;101226.50;;;16.90;50.39
49216;BME280;45943;53.148;8.204;2023-04-25T11:09:35;101219.13;;;17.18;49.37
49216;BME280;45943;53.148;8.204;2023-04-25T11:12:04;101231.81;;;17.36;47.36
49216;BME280;45943;53.148;8.204;2023-04-25T11:14:32;101222.28;;;17.58;47.28
49216;BME280;45943;53.148;8.204;2023-04-25T11:16:58;101223.16;;;17.84;46.83
49216;BME280;45943;53.148;8.204;2023-04-25T11:19:25;101220.59;;;18.17;45.83
49216;BME280;45943;53.148;8.204;2023-04-25T11:21:58;101214.06;;;17.93;43.89
49216;BME280;45943;53.148;8.204;2023-04-25T11:24:29;101214.41;;;17.46;45.31
49216;BME280;45943;53.148;8.204;2023-04-25T11:26:56;101222.59;;;17.29;44.03
49216;BME280;45943;53.148;8.204;2023-04-25T11:29:27;101237.22;;;16.92;44.20
49216;BME280;45943;53.148;8.204;2023-04-25T11:31:54;101238.66;;;16.41;46.04
49216;BME280;45943;53.148;8.204;2023-04-25T11:34:23;101273.50;;;15.89;48.49
49216;BME280;45943;53.148;8.204;2023-04-25T11:36:51;101273.41;;;15.52;49.40
49216;BME280;45943;53.148;8.204;2023-04-25T11:39:18;101271.31;;;15.46;52.19
49216;BME280;45943;53.148;8.204;2023-04-25T11:41:46;101274.28;;;15.43;50.54
49216;BME280;45943;53.148;8.204;2023-04-25T11:44:15;101262.75;;;15.50;50.69
49216;BME280;45943;53.148;8.204;2023-04-25T11:46:45;101270.47;;;16.02;49.97
49216;BME280;45943;53.148;8.204;2023-04-25T11:49:11;101272.44;;;16.64;48.39
49216;BME280;45943;53.148;8.204;2023-04-25T11:51:38;101258.09;;;17.17;47.94
49216;BME280;45943;53.148;8.204;2023-04-25T11:54:06;101266.59;;;17.66;47.44
49216;BME280;45943;53.148;8.204;2023-04-25T11:56:32;101262.56;;;17.96;46.29
49216;BME280;45943;53.148;8.204;2023-04-25T11:58:59;101251.19;;;18.27;44.80
49216;BME280;45943;53.148;8.204;2023-04-25T12:04:17;101260.59;;;19.24;47.95
49216;BME280;45943;53.148;8.204;2023-04-25T12:06:44;101253.13;;;19.17;44.09
49216;BME280;45943;53.148;8.204;2023-04-25T12:09:13;101260.91;;;18.80;44.78
49216;BME280;45943;53.148;8.204;2023-04-25T12:11:44;101263.34;;;18.49;42.02
49216;BME280;45943;53.148;8.204;2023-04-25T12:14:12;101271.63;;;18.39;41.21
49216;BME280;45943;53.148;8.204;2023-04-25T12:16:47;101277.06;;;18.47;41.60
49216;BME280;45943;53.148;8.204;2023-04-25T12:19:15;101280.38;;;18.67;40.04
49216;BME280;45943;53.148;8.204;2023-04-25T12:21:42;101278.50;;;18.68;40.11
49216;BME280;45943;53.148;8.204;2023-04-25T12:24:22;101286.09;;;17.88;39.56
49216;BME280;45943;53.148;8.204;2023-04-25T12:26:52;101290.44;;;17.55;39.92
49216;BME280;45943;53.148;8.204;2023-04-25T12:29:27;101288.69;;;17.28;38.51
49216;BME280;45943;53.148;8.204;2023-04-25T12:31:56;101300.06;;;16.96;38.87
49216;BME280;45943;53.148;8.204;2023-04-25T12:34:22;101304.50;;;16.69;39.06
49216;BME280;45943;53.148;8.204;2023-04-25T12:36:49;101299.13;;;16.87;39.21
49216;BME280;45943;53.148;8.204;2023-04-25T12:39:17;101290.84;;;17.42;39.70
49216;BME280;45943;53.148;8.204;2023-04-25T12:41:53;101296.75;;;18.07;38.72
49216;BME280;45943;53.148;8.204;2023-04-25T12:44:20;101299.00;;;18.54;39.51
49216;BME280;45943;53.148;8.204;2023-04-25T12:46:46;101301.69;;;18.88;40.23
49216;BME280;45943;53.148;8.204;2023-04-25T12:49:12;101300.84;;;18.96;37.47
49216;BME280;45943;53.148;8.204;2023-04-25T12:51:38;101298.16;;;19.36;36.36
49216;BME280;45943;53.148;8.204;2023-04-25T12:54:05;101303.47;;;19.38;34.47
49216;BME280;45943;53.148;8.204;2023-04-25T12:56:32;101298.31;;;19.02;34.73